LFRC/CER METAR and TAF weather

Enter ICAO airport designator
Station Type Date Time Source
LFRC METAR 2019/12/06 02:00 UTC NOAA

LFRC 060200Z AUTO 23018KT 9999 -RA OVC007 09/08 Q1015


Station Type Date Time Source
LFRC Decoded METAR 2019/12/06 02:00 UTC NOAA

Cherbourg / Maupertus, France (LFRC) 49-39N 001-28W 139M
Dec 05, 2019 - 09:00 PM EST / 2019.12.06 0200 UTC
Wind: from the SW (230 degrees) at 21 MPH (18 KT):0
Visibility: greater than 7 mile(s):0
Sky conditions: overcast
Weather: light rain
Temperature: 48 F (9 C)
Dew Point: 46 F (8 C)
Relative Humidity: 93%
Pressure (altimeter): 29.97 in. Hg (1015 hPa)
ob: LFRC 060200Z AUTO 23018KT 9999 -RA OVC007 09/08 Q1015
cycle: 2

Station Type Date Time Source
LFRC TAF 2008/10/12 17:07 UTC NOAA

TAF
AMD LFRC 121707Z 121721 CNL

Example: see airport list